SKCL

Alfonso Bonilla Aragón International Airport

Airport
ICAO code
SKCL
IATA Code
CLO
Summary
ICAO Region
CARSAM
ICAO Territory
Location

Palmira, Valle del Cauca Department

Serving
Cali
Elevation
3162 ft
Coordinates
3° 32' 38" N , 76° 23' 3" W
KCC
Aw
Metar
Observation
SKCL 170800Z 11003KT 9999 FEW020 SCT120 21/19 Q1015 NOSIG RMK A2998
Station
Cali / Alfonso Bonillaaragon
Date/Time
2022-08-17 08:00:00
Wind direction
110°
Wind speed
03 kts
Lowest cloud amount
few clouds
Temperature
21°C
Dew point
19°C
Humidity
88%
QNH
1015 hPa
Weather condition
n/a

Alfonso Bonilla Aragón International Airport also known as Palmaseca International Airport is an airport located in Palmira, Colombia, serving Cali and its suburbs.

Climatology

Tropical savanna climate (Köppen climate classification Aw)

Runways

Designator Length Width Surface Rops
1/19 3000 45 ASP Yes/Yes

Airport map

Aerial View

SKYbrary Partners:

Safety knowledge contributed by: